This is the latest recevied weather packets stored in our database for station/object ZS1DFR-1. If no packets are shown the sender has not sent any weather packets the latest 10 day(s).
| Time | Temp. | Humidity | Pressure | Rain* | Wind** | Luminosity | Snow |
|---|---|---|---|---|---|---|---|
| 1777926212 | 14.44° C | 84% | 1012.8 hPa | 0 mm | - | - | - |
| 1777925312 | 14.44° C | 84% | 1012.8 hPa | 0 mm | - | - | - |
| 1777924412 | 14.44° C | 84% | 1012.9 hPa | 0 mm | - | - | - |
| 1777923512 | 14.44° C | 84% | 1012.9 hPa | 0 mm | - | - | - |
| 1777922612 | 14.44° C | 83% | 1012.9 hPa | 0 mm | - | - | - |
| 1777921712 | 14.44° C | 83% | 1012.9 hPa | 0 mm | - | - | - |
| 1777920812 | 14.44° C | 85% | 1012.8 hPa | 0 mm | - | - | - |
| 1777919912 | 14.44° C | 85% | 1012.8 hPa | 0 mm | - | - | - |
| 1777919012 | 15° C | 84% | 1012.7 hPa | 0 mm | - | - | - |
| 1777918112 | 15° C | 84% | 1012.7 hPa | 0 mm | - | - | - |
| 1777917212 | 15° C | 85% | 1012.4 hPa | 0 mm | - | - | - |
| 1777916312 | 15° C | 85% | 1012.4 hPa | 0 mm | - | - | - |
| 1777915412 | 15.56° C | 82% | 1012.4 hPa | 0 mm | - | - | - |
| 1777914512 | 15.56° C | 82% | 1012.4 hPa | 0 mm | - | - | - |
| 1777913612 | 16.11° C | 79% | 1012.2 hPa | 0 mm | - | - | - |
| 1777912712 | 16.11° C | 79% | 1012.2 hPa | 0 mm | - | - | - |
| 1777911812 | 17.22° C | 74% | 1012.2 hPa | 0 mm | - | - | - |
| 1777910912 | 17.22° C | 74% | 1012.2 hPa | 0 mm | - | - | - |
| 1777910012 | 17.78° C | 72% | 1011.9 hPa | 0 mm | - | - | - |
| 1777909114 | 17.78° C | 72% | 1011.9 hPa | 0 mm | - | - | - |
| 1777908212 | 18.33° C | 70% | 1011.8 hPa | 0 mm | - | - | - |
| 1777907312 | 18.33° C | 70% | 1011.8 hPa | 0 mm | - | - | - |
| 1777906412 | 18.33° C | 66% | 1011.6 hPa | 0 mm | - | - | - |
| 1777905512 | 18.33° C | 66% | 1011.6 hPa | 0 mm | - | - | - |
| 1777904612 | 18.89° C | 67% | 1011.3 hPa | 0 mm | - | - | - |
* Rain latest hour (hover to see other rain measurements)
** Current wind speed in m/s (hover to see current wind gust speed)